Главная страница
METAR-TAF:

METAR-TAF

Аэропорты :

Нукус, Узбекистан

широта: 42-28-48N, долгота: 059-37-48E, высота над уровнем моря: м

Текущие метеонаблюдения

Эта сводка был подготовлена 33 минут назад, в 16:30 UTC
Ветер 6 Узел от северный
Температура 24°C
Влажность 36%
Давление 1019 hPa
Видимость 10 км и более
Нет облачности ниже 1500 м, и нет кучево-дождевой облачности

METAR: UTNN 191630Z 36006KT CAVOK 24/08 Q1019 R33/CLRD60 NOSIG

Время: 22:03 (17:03 UTC)

Прогноз

Эта сводка был подготовлена 6 часа и 3 минут назад, в 11:00 UTC
Прогноз действительный с 19-го 12 UTC до 20-го 12 UTC
Ветер 4 Узел переменных направлений
Видимость 10 км и более
Нет облачности ниже 1500 м, и нет кучево-дождевой облачности
временами
С 20-го 04 UTC до 20-го 12 UTC
Ветер 12 Узел от северный

TAF: UTNN 191100Z 1912/2012 VRB04KT CAVOK TEMPO 2004/2012 01012KT

Метеонаблюдения и прогнозы для более 4000 аэропортов (сводки METAR и TAF).

Имеющиеся станции представлены на карте желтыми и красными точками.

Чтобы увидеть название станции, наведите на нее мышь.

Затем щелкните, чтобы увидеть метеонаблюдения и метеопрогнозы.

Управление картой: чтобы увеличить масштаб, щелкните зеленые кнопки с черным крестиком; чтобы уменьшить масштаб, щелкните зеленую кнопку с тире; для просмотра соседних карт щелкайте зеленые стрелки.


METAR-TAF: